Kenny, Argentina
Current Conditions -  °F | °C
As of 5:00 PM on Saturday 25 Oct 2014 (Local Time) from SADF Reporting Station
Overcast Overcast  
Wind Chill: 28°   Ceiling: 20000
Heat Index: 29°   Visibility: 6mi
Dew Point: 18°   Wind: 10mph
Humidity: 54%   Direction: 90°E
Pressure: 29.83"   Gusts: NA
Location:  34.37°S, 60.01°W
Report Text: SADF 252000Z 09009KT 9999 FEW030 OVC20028/18 Q1010
Loading
Personal Weather Stations






























Interactive Weather Map
Tropical Storm Tracking
New forecast layout! Learn more

10-Day Weather Forecast

Advertisements
Track Severe Weather on mobile